sensor_id;sensor_type;location;lat;lon;timestamp;temperature;humidity
939;DHT22;456;53.584;9.968;2024-01-16T03:26:47;17.50;27.90
939;DHT22;456;53.584;9.968;2024-01-16T04:10:37;17.50;27.10
939;DHT22;456;53.584;9.968;2024-01-16T04:22:47;17.40;26.60
939;DHT22;456;53.584;9.968;2024-01-16T07:32:51;17.40;27.60
939;DHT22;456;53.584;9.968;2024-01-16T07:35:17;17.70;27.60
939;DHT22;456;53.584;9.968;2024-01-16T07:37:42;17.70;27.80
939;DHT22;456;53.584;9.968;2024-01-16T07:40:08;17.70;28.00
939;DHT22;456;53.584;9.968;2024-01-16T07:42:35;17.80;28.00
939;DHT22;456;53.584;9.968;2024-01-16T07:45:01;17.70;28.30
939;DHT22;456;53.584;9.968;2024-01-16T07:47:30;17.70;27.90
939;DHT22;456;53.584;9.968;2024-01-16T07:49:57;17.70;28.30
939;DHT22;456;53.584;9.968;2024-01-16T07:52:22;17.70;28.20
939;DHT22;456;53.584;9.968;2024-01-16T07:54:48;17.70;28.40
939;DHT22;456;53.584;9.968;2024-01-16T07:57:13;17.70;28.70
939;DHT22;456;53.584;9.968;2024-01-16T08:02:06;17.70;28.60
939;DHT22;456;53.584;9.968;2024-01-16T08:04:32;17.70;29.60
939;DHT22;456;53.584;9.968;2024-01-16T08:06:58;17.70;29.00
939;DHT22;456;53.584;9.968;2024-01-16T08:09:23;17.80;29.50
939;DHT22;456;53.584;9.968;2024-01-16T08:11:49;17.80;29.50
939;DHT22;456;53.584;9.968;2024-01-16T08:14:15;17.70;29.10
939;DHT22;456;53.584;9.968;2024-01-16T08:16:40;17.80;29.50
939;DHT22;456;53.584;9.968;2024-01-16T08:19:06;17.80;29.30
939;DHT22;456;53.584;9.968;2024-01-16T08:21:31;17.80;29.00
939;DHT22;456;53.584;9.968;2024-01-16T08:23:57;17.70;29.50
939;DHT22;456;53.584;9.968;2024-01-16T08:26:23;17.60;31.50
939;DHT22;456;53.584;9.968;2024-01-16T08:28:48;17.70;34.70
939;DHT22;456;53.584;9.968;2024-01-16T08:31:17;17.70;30.30
939;DHT22;456;53.584;9.968;2024-01-16T08:33:44;17.70;30.10
939;DHT22;456;53.584;9.968;2024-01-16T08:36:09;17.70;28.90
939;DHT22;456;53.584;9.968;2024-01-16T08:38:35;17.70;28.30
939;DHT22;456;53.584;9.968;2024-01-16T08:41:00;17.70;28.10
939;DHT22;456;53.584;9.968;2024-01-16T08:43:26;17.80;27.90
939;DHT22;456;53.584;9.968;2024-01-16T08:45:51;17.80;27.80
939;DHT22;456;53.584;9.968;2024-01-16T08:48:17;17.70;27.70
939;DHT22;456;53.584;9.968;2024-01-16T08:50:43;17.70;27.60
939;DHT22;456;53.584;9.968;2024-01-16T08:53:08;17.70;28.10
939;DHT22;456;53.584;9.968;2024-01-16T08:55:34;17.70;27.50
939;DHT22;456;53.584;9.968;2024-01-16T08:57:59;17.80;27.50
939;DHT22;456;53.584;9.968;2024-01-16T09:00:25;17.80;27.50
939;DHT22;456;53.584;9.968;2024-01-16T09:02:50;17.80;27.50
939;DHT22;456;53.584;9.968;2024-01-16T09:05:16;17.70;27.30
939;DHT22;456;53.584;9.968;2024-01-16T09:07:42;17.80;27.10
939;DHT22;456;53.584;9.968;2024-01-16T09:10:08;17.80;27.20
939;DHT22;456;53.584;9.968;2024-01-16T09:12:33;17.80;27.20
939;DHT22;456;53.584;9.968;2024-01-16T09:14:59;17.70;27.20
939;DHT22;456;53.584;9.968;2024-01-16T09:17:25;17.70;27.00
939;DHT22;456;53.584;9.968;2024-01-16T09:19:53;17.70;26.90
939;DHT22;456;53.584;9.968;2024-01-16T09:22:19;17.80;27.20
939;DHT22;456;53.584;9.968;2024-01-16T09:24:44;17.70;27.00
939;DHT22;456;53.584;9.968;2024-01-16T09:27:10;17.70;26.70
939;DHT22;456;53.584;9.968;2024-01-16T09:29:36;17.70;26.60
939;DHT22;456;53.584;9.968;2024-01-16T09:32:02;17.70;26.50
939;DHT22;456;53.584;9.968;2024-01-16T09:34:28;17.80;26.60
939;DHT22;456;53.584;9.968;2024-01-16T09:36:55;17.80;26.60
939;DHT22;456;53.584;9.968;2024-01-16T09:39:24;17.70;26.50
939;DHT22;456;53.584;9.968;2024-01-16T09:41:50;17.80;26.50
939;DHT22;456;53.584;9.968;2024-01-16T09:44:15;17.80;26.50
939;DHT22;456;53.584;9.968;2024-01-16T09:46:42;17.70;26.40
939;DHT22;456;53.584;9.968;2024-01-16T09:49:12;17.70;26.30
939;DHT22;456;53.584;9.968;2024-01-16T09:51:39;17.80;26.40
939;DHT22;456;53.584;9.968;2024-01-16T09:54:05;17.70;26.40
939;DHT22;456;53.584;9.968;2024-01-16T09:56:35;17.70;26.40
939;DHT22;456;53.584;9.968;2024-01-16T09:59:05;17.70;26.30
939;DHT22;456;53.584;9.968;2024-01-16T10:01:33;17.80;26.30
939;DHT22;456;53.584;9.968;2024-01-16T10:03:59;17.80;26.20
939;DHT22;456;53.584;9.968;2024-01-16T10:06:27;17.70;26.10
939;DHT22;456;53.584;9.968;2024-01-16T10:08:53;17.70;25.90
939;DHT22;456;53.584;9.968;2024-01-16T10:11:19;17.60;26.00
939;DHT22;456;53.584;9.968;2024-01-16T10:13:45;17.70;26.00
939;DHT22;456;53.584;9.968;2024-01-16T10:16:10;17.70;25.90
939;DHT22;456;53.584;9.968;2024-01-16T10:18:36;17.70;25.90
939;DHT22;456;53.584;9.968;2024-01-16T10:21:20;17.70;26.00
939;DHT22;456;53.584;9.968;2024-01-16T10:23:46;17.80;26.10
939;DHT22;456;53.584;9.968;2024-01-16T10:26:12;17.70;25.90
939;DHT22;456;53.584;9.968;2024-01-16T10:28:42;17.80;26.00
939;DHT22;456;53.584;9.968;2024-01-16T10:31:09;17.80;26.00
939;DHT22;456;53.584;9.968;2024-01-16T10:33:36;17.80;26.10
939;DHT22;456;53.584;9.968;2024-01-16T10:38:39;17.70;26.00
939;DHT22;456;53.584;9.968;2024-01-16T10:41:15;17.80;26.10
939;DHT22;456;53.584;9.968;2024-01-16T10:43:43;17.80;26.20
939;DHT22;456;53.584;9.968;2024-01-16T10:46:15;17.80;26.10
939;DHT22;456;53.584;9.968;2024-01-16T10:48:44;17.70;25.90
939;DHT22;456;53.584;9.968;2024-01-16T10:51:11;17.70;26.00
939;DHT22;456;53.584;9.968;2024-01-16T10:53:42;17.80;26.00
939;DHT22;456;53.584;9.968;2024-01-16T10:56:10;17.80;25.90
939;DHT22;456;53.584;9.968;2024-01-16T10:58:40;17.80;26.00
939;DHT22;456;53.584;9.968;2024-01-16T11:01:11;17.80;25.80
939;DHT22;456;53.584;9.968;2024-01-16T11:03:47;17.70;25.60
939;DHT22;456;53.584;9.968;2024-01-16T11:06:17;17.80;25.80
939;DHT22;456;53.584;9.968;2024-01-16T11:08:45;17.80;25.80
939;DHT22;456;53.584;9.968;2024-01-16T11:11:12;17.70;25.80
939;DHT22;456;53.584;9.968;2024-01-16T11:13:38;17.70;25.70
939;DHT22;456;53.584;9.968;2024-01-16T11:16:05;17.80;25.80
939;DHT22;456;53.584;9.968;2024-01-16T11:18:32;17.70;25.60
939;DHT22;456;53.584;9.968;2024-01-16T11:20:59;17.80;25.60
939;DHT22;456;53.584;9.968;2024-01-16T11:23:25;17.70;25.50
939;DHT22;456;53.584;9.968;2024-01-16T23:42:19;17.80;25.50
